sensor_id;sensor_type;location;lat;lon;timestamp;P1;durP1;ratioP1;P2;durP2;ratioP2
26858;SDS011;14429;48.346;16.338;2023-02-28T00:01:28;11.35;;;5.28;;
26858;SDS011;14429;48.346;16.338;2023-02-28T00:03:53;10.60;;;4.30;;
26858;SDS011;14429;48.346;16.338;2023-02-28T00:06:19;16.95;;;4.97;;
26858;SDS011;14429;48.346;16.338;2023-02-28T00:08:44;8.70;;;4.57;;
26858;SDS011;14429;48.346;16.338;2023-02-28T00:11:11;8.15;;;2.88;;
26858;SDS011;14429;48.346;16.338;2023-02-28T00:13:39;4.85;;;2.58;;
26858;SDS011;14429;48.346;16.338;2023-02-28T00:16:07;5.10;;;2.20;;
26858;SDS011;14429;48.346;16.338;2023-02-28T00:18:34;4.47;;;1.90;;
26858;SDS011;14429;48.346;16.338;2023-02-28T00:21:00;5.15;;;3.05;;
26858;SDS011;14429;48.346;16.338;2023-02-28T00:23:25;2.72;;;1.80;;
26858;SDS011;14429;48.346;16.338;2023-02-28T00:25:52;2.83;;;1.63;;
26858;SDS011;14429;48.346;16.338;2023-02-28T00:28:19;2.65;;;1.65;;
26858;SDS011;14429;48.346;16.338;2023-02-28T00:30:44;3.55;;;1.98;;
26858;SDS011;14429;48.346;16.338;2023-02-28T00:33:10;2.40;;;1.60;;
26858;SDS011;14429;48.346;16.338;2023-02-28T00:35:35;12.52;;;5.35;;
26858;SDS011;14429;48.346;16.338;2023-02-28T00:38:01;12.95;;;5.75;;
26858;SDS011;14429;48.346;16.338;2023-02-28T00:40:26;13.68;;;5.55;;
26858;SDS011;14429;48.346;16.338;2023-02-28T00:42:52;5.80;;;2.92;;
26858;SDS011;14429;48.346;16.338;2023-02-28T00:45:19;3.83;;;2.50;;
26858;SDS011;14429;48.346;16.338;2023-02-28T00:47:44;3.45;;;1.80;;
26858;SDS011;14429;48.346;16.338;2023-02-28T00:50:10;3.05;;;1.90;;
26858;SDS011;14429;48.346;16.338;2023-02-28T00:52:35;4.93;;;2.10;;
26858;SDS011;14429;48.346;16.338;2023-02-28T00:55:01;7.18;;;2.35;;
26858;SDS011;14429;48.346;16.338;2023-02-28T00:57:27;4.75;;;2.17;;
26858;SDS011;14429;48.346;16.338;2023-02-28T00:59:52;3.92;;;2.20;;
26858;SDS011;14429;48.346;16.338;2023-02-28T01:02:19;5.10;;;2.17;;
26858;SDS011;14429;48.346;16.338;2023-02-28T01:04:44;9.95;;;4.55;;
26858;SDS011;14429;48.346;16.338;2023-02-28T01:07:11;2.63;;;1.80;;
26858;SDS011;14429;48.346;16.338;2023-02-28T01:09:36;4.10;;;2.20;;
26858;SDS011;14429;48.346;16.338;2023-02-28T01:12:01;3.53;;;2.10;;
26858;SDS011;14429;48.346;16.338;2023-02-28T01:14:27;4.00;;;1.83;;
26858;SDS011;14429;48.346;16.338;2023-02-28T01:16:52;5.53;;;2.08;;
26858;SDS011;14429;48.346;16.338;2023-02-28T01:19:19;4.22;;;2.40;;
26858;SDS011;14429;48.346;16.338;2023-02-28T01:21:45;5.20;;;3.03;;
26858;SDS011;14429;48.346;16.338;2023-02-28T01:24:10;4.10;;;2.17;;
26858;SDS011;14429;48.346;16.338;2023-02-28T01:26:36;5.10;;;1.98;;
26858;SDS011;14429;48.346;16.338;2023-02-28T01:29:01;4.05;;;1.88;;
26858;SDS011;14429;48.346;16.338;2023-02-28T01:31:26;3.38;;;2.08;;
26858;SDS011;14429;48.346;16.338;2023-02-28T01:33:52;4.80;;;2.28;;
26858;SDS011;14429;48.346;16.338;2023-02-28T01:36:20;4.07;;;2.40;;
26858;SDS011;14429;48.346;16.338;2023-02-28T01:38:46;5.30;;;2.22;;
26858;SDS011;14429;48.346;16.338;2023-02-28T01:41:14;5.93;;;2.83;;
26858;SDS011;14429;48.346;16.338;2023-02-28T01:43:53;4.78;;;2.17;;
26858;SDS011;14429;48.346;16.338;2023-02-28T01:46:20;4.47;;;2.17;;
26858;SDS011;14429;48.346;16.338;2023-02-28T01:48:46;3.97;;;2.00;;
26858;SDS011;14429;48.346;16.338;2023-02-28T01:51:15;3.25;;;2.30;;
26858;SDS011;14429;48.346;16.338;2023-02-28T01:53:47;3.10;;;1.88;;
26858;SDS011;14429;48.346;16.338;2023-02-28T01:56:16;4.90;;;2.67;;
26858;SDS011;14429;48.346;16.338;2023-02-28T01:58:45;3.72;;;2.22;;
26858;SDS011;14429;48.346;16.338;2023-02-28T02:01:11;2.90;;;1.92;;
26858;SDS011;14429;48.346;16.338;2023-02-28T02:03:36;3.83;;;1.92;;
26858;SDS011;14429;48.346;16.338;2023-02-28T02:06:02;4.35;;;2.35;;
26858;SDS011;14429;48.346;16.338;2023-02-28T02:08:29;2.80;;;2.20;;
26858;SDS011;14429;48.346;16.338;2023-02-28T02:10:54;5.50;;;2.30;;
26858;SDS011;14429;48.346;16.338;2023-02-28T02:16:12;5.57;;;2.20;;
26858;SDS011;14429;48.346;16.338;2023-02-28T02:18:50;4.13;;;2.33;;
26858;SDS011;14429;48.346;16.338;2023-02-28T02:24:26;4.05;;;2.72;;
26858;SDS011;14429;48.346;16.338;2023-02-28T02:27:26;5.50;;;2.33;;
26858;SDS011;14429;48.346;16.338;2023-02-28T02:30:14;6.30;;;2.65;;
26858;SDS011;14429;48.346;16.338;2023-02-28T02:33:03;3.85;;;2.22;;
26858;SDS011;14429;48.346;16.338;2023-02-28T02:35:36;3.58;;;1.95;;
26858;SDS011;14429;48.346;16.338;2023-02-28T02:38:08;4.88;;;2.15;;
26858;SDS011;14429;48.346;16.338;2023-02-28T02:40:43;6.22;;;2.80;;
26858;SDS011;14429;48.346;16.338;2023-02-28T02:45:44;4.03;;;2.35;;
26858;SDS011;14429;48.346;16.338;2023-02-28T02:48:13;6.43;;;3.38;;
26858;SDS011;14429;48.346;16.338;2023-02-28T02:50:45;4.38;;;2.55;;
26858;SDS011;14429;48.346;16.338;2023-02-28T02:53:14;5.15;;;2.50;;
26858;SDS011;14429;48.346;16.338;2023-02-28T02:55:44;4.38;;;2.40;;
26858;SDS011;14429;48.346;16.338;2023-02-28T02:58:13;4.22;;;2.42;;
26858;SDS011;14429;48.346;16.338;2023-02-28T03:00:42;5.57;;;2.05;;
26858;SDS011;14429;48.346;16.338;2023-02-28T03:03:11;5.43;;;2.55;;
26858;SDS011;14429;48.346;16.338;2023-02-28T03:05:39;3.75;;;2.17;;
26858;SDS011;14429;48.346;16.338;2023-02-28T03:08:10;3.13;;;1.95;;
26858;SDS011;14429;48.346;16.338;2023-02-28T03:10:37;7.25;;;2.25;;
26858;SDS011;14429;48.346;16.338;2023-02-28T03:13:09;2.72;;;2.00;;
26858;SDS011;14429;48.346;16.338;2023-02-28T03:15:45;4.97;;;1.80;;
26858;SDS011;14429;48.346;16.338;2023-02-28T03:18:23;5.13;;;2.55;;
26858;SDS011;14429;48.346;16.338;2023-02-28T03:20:56;4.32;;;2.90;;
26858;SDS011;14429;48.346;16.338;2023-02-28T03:23:32;6.80;;;2.45;;
26858;SDS011;14429;48.346;16.338;2023-02-28T03:26:04;3.08;;;2.05;;
26858;SDS011;14429;48.346;16.338;2023-02-28T03:28:35;3.95;;;2.45;;
26858;SDS011;14429;48.346;16.338;2023-02-28T03:31:08;4.38;;;2.33;;
26858;SDS011;14429;48.346;16.338;2023-02-28T03:33:41;2.95;;;1.95;;
26858;SDS011;14429;48.346;16.338;2023-02-28T03:36:12;6.00;;;2.58;;
26858;SDS011;14429;48.346;16.338;2023-02-28T03:38:43;3.80;;;2.08;;
26858;SDS011;14429;48.346;16.338;2023-02-28T03:41:13;8.05;;;4.35;;
26858;SDS011;14429;48.346;16.338;2023-02-28T03:43:43;4.75;;;2.72;;
26858;SDS011;14429;48.346;16.338;2023-02-28T03:46:14;5.10;;;2.05;;
26858;SDS011;14429;48.346;16.338;2023-02-28T03:48:47;4.18;;;2.25;;
26858;SDS011;14429;48.346;16.338;2023-02-28T03:51:16;6.60;;;2.53;;
26858;SDS011;14429;48.346;16.338;2023-02-28T03:53:46;6.70;;;2.83;;
26858;SDS011;14429;48.346;16.338;2023-02-28T03:56:18;7.28;;;2.42;;
26858;SDS011;14429;48.346;16.338;2023-02-28T03:58:47;4.97;;;2.75;;
26858;SDS011;14429;48.346;16.338;2023-02-28T04:01:16;10.50;;;5.40;;
26858;SDS011;14429;48.346;16.338;2023-02-28T04:03:46;10.43;;;5.38;;
26858;SDS011;14429;48.346;16.338;2023-02-28T04:06:13;8.60;;;4.28;;
26858;SDS011;14429;48.346;16.338;2023-02-28T04:08:41;5.18;;;2.88;;
26858;SDS011;14429;48.346;16.338;2023-02-28T04:11:08;6.28;;;2.80;;
26858;SDS011;14429;48.346;16.338;2023-02-28T04:13:43;6.03;;;2.63;;
26858;SDS011;14429;48.346;16.338;2023-02-28T04:16:09;4.57;;;2.70;;
26858;SDS011;14429;48.346;16.338;2023-02-28T04:18:34;7.40;;;2.85;;
26858;SDS011;14429;48.346;16.338;2023-02-28T04:20:59;5.00;;;2.58;;
26858;SDS011;14429;48.346;16.338;2023-02-28T04:23:25;3.38;;;2.13;;
26858;SDS011;14429;48.346;16.338;2023-02-28T04:25:54;5.57;;;2.28;;
26858;SDS011;14429;48.346;16.338;2023-02-28T04:28:21;8.13;;;2.97;;
26858;SDS011;14429;48.346;16.338;2023-02-28T04:30:46;3.88;;;2.22;;
26858;SDS011;14429;48.346;16.338;2023-02-28T04:33:18;4.60;;;2.53;;
26858;SDS011;14429;48.346;16.338;2023-02-28T04:35:44;3.92;;;2.42;;
26858;SDS011;14429;48.346;16.338;2023-02-28T04:38:09;3.78;;;2.30;;
26858;SDS011;14429;48.346;16.338;2023-02-28T04:40:35;4.63;;;2.40;;
26858;SDS011;14429;48.346;16.338;2023-02-28T04:43:00;5.80;;;3.08;;
26858;SDS011;14429;48.346;16.338;2023-02-28T04:45:27;5.32;;;2.28;;
26858;SDS011;14429;48.346;16.338;2023-02-28T04:47:52;4.18;;;2.58;;
26858;SDS011;14429;48.346;16.338;2023-02-28T04:50:18;6.35;;;2.67;;
26858;SDS011;14429;48.346;16.338;2023-02-28T04:52:43;5.25;;;2.42;;
26858;SDS011;14429;48.346;16.338;2023-02-28T04:55:09;4.68;;;2.38;;
26858;SDS011;14429;48.346;16.338;2023-02-28T04:57:34;5.00;;;2.75;;
26858;SDS011;14429;48.346;16.338;2023-02-28T05:00:00;5.05;;;2.70;;
26858;SDS011;14429;48.346;16.338;2023-02-28T05:02:27;5.22;;;2.92;;
26858;SDS011;14429;48.346;16.338;2023-02-28T05:04:52;5.78;;;2.33;;
26858;SDS011;14429;48.346;16.338;2023-02-28T05:07:17;4.53;;;2.30;;
26858;SDS011;14429;48.346;16.338;2023-02-28T05:09:43;3.03;;;2.22;;
26858;SDS011;14429;48.346;16.338;2023-02-28T05:12:08;7.85;;;3.95;;
26858;SDS011;14429;48.346;16.338;2023-02-28T05:14:35;5.00;;;2.80;;
26858;SDS011;14429;48.346;16.338;2023-02-28T05:17:01;8.60;;;4.13;;
26858;SDS011;14429;48.346;16.338;2023-02-28T05:19:27;3.97;;;2.50;;
26858;SDS011;14429;48.346;16.338;2023-02-28T05:21:53;2.97;;;2.20;;
26858;SDS011;14429;48.346;16.338;2023-02-28T05:24:20;4.70;;;2.70;;
26858;SDS011;14429;48.346;16.338;2023-02-28T05:26:45;4.40;;;2.72;;
26858;SDS011;14429;48.346;16.338;2023-02-28T05:29:10;5.18;;;2.97;;
26858;SDS011;14429;48.346;16.338;2023-02-28T05:31:36;10.15;;;3.00;;
26858;SDS011;14429;48.346;16.338;2023-02-28T05:34:02;6.18;;;2.53;;
26858;SDS011;14429;48.346;16.338;2023-02-28T05:36:28;3.70;;;2.25;;
26858;SDS011;14429;48.346;16.338;2023-02-28T05:38:54;4.10;;;2.50;;
26858;SDS011;14429;48.346;16.338;2023-02-28T05:41:20;6.60;;;2.63;;
26858;SDS011;14429;48.346;16.338;2023-02-28T05:43:46;6.85;;;2.65;;
26858;SDS011;14429;48.346;16.338;2023-02-28T05:46:12;5.72;;;2.28;;
26858;SDS011;14429;48.346;16.338;2023-02-28T05:48:38;5.28;;;2.47;;
26858;SDS011;14429;48.346;16.338;2023-02-28T05:51:06;5.60;;;2.75;;
26858;SDS011;14429;48.346;16.338;2023-02-28T05:53:34;4.43;;;2.53;;
26858;SDS011;14429;48.346;16.338;2023-02-28T05:56:00;5.53;;;2.45;;
26858;SDS011;14429;48.346;16.338;2023-02-28T05:58:26;5.05;;;2.45;;
26858;SDS011;14429;48.346;16.338;2023-02-28T06:00:51;4.93;;;3.28;;
26858;SDS011;14429;48.346;16.338;2023-02-28T06:03:17;6.82;;;2.67;;
26858;SDS011;14429;48.346;16.338;2023-02-28T06:05:42;7.25;;;2.97;;
26858;SDS011;14429;48.346;16.338;2023-02-28T06:08:08;4.10;;;2.45;;
26858;SDS011;14429;48.346;16.338;2023-02-28T06:10:35;7.75;;;2.83;;
26858;SDS011;14429;48.346;16.338;2023-02-28T06:13:00;9.25;;;4.22;;
26858;SDS011;14429;48.346;16.338;2023-02-28T06:15:26;8.50;;;3.13;;
26858;SDS011;14429;48.346;16.338;2023-02-28T06:17:51;5.78;;;3.28;;
26858;SDS011;14429;48.346;16.338;2023-02-28T06:20:17;7.55;;;2.70;;
26858;SDS011;14429;48.346;16.338;2023-02-28T06:22:43;8.32;;;3.10;;
26858;SDS011;14429;48.346;16.338;2023-02-28T06:25:09;4.82;;;2.83;;
26858;SDS011;14429;48.346;16.338;2023-02-28T06:27:36;23.73;;;8.73;;
26858;SDS011;14429;48.346;16.338;2023-02-28T06:30:02;5.03;;;2.50;;
26858;SDS011;14429;48.346;16.338;2023-02-28T06:32:28;7.00;;;3.20;;
26858;SDS011;14429;48.346;16.338;2023-02-28T06:34:53;11.70;;;5.47;;
26858;SDS011;14429;48.346;16.338;2023-02-28T06:37:19;4.65;;;2.40;;
26858;SDS011;14429;48.346;16.338;2023-02-28T06:39:45;7.68;;;3.53;;
26858;SDS011;14429;48.346;16.338;2023-02-28T06:42:10;8.90;;;3.58;;
26858;SDS011;14429;48.346;16.338;2023-02-28T06:44:38;10.35;;;4.97;;
26858;SDS011;14429;48.346;16.338;2023-02-28T06:47:04;4.35;;;2.80;;
26858;SDS011;14429;48.346;16.338;2023-02-28T06:49:32;10.35;;;4.13;;
26858;SDS011;14429;48.346;16.338;2023-02-28T06:51:59;4.88;;;2.80;;
26858;SDS011;14429;48.346;16.338;2023-02-28T06:54:24;5.38;;;2.88;;
26858;SDS011;14429;48.346;16.338;2023-02-28T06:56:50;11.13;;;5.43;;
26858;SDS011;14429;48.346;16.338;2023-02-28T06:59:15;6.53;;;2.88;;
26858;SDS011;14429;48.346;16.338;2023-02-28T07:01:42;3.85;;;2.40;;
26858;SDS011;14429;48.346;16.338;2023-02-28T07:04:08;6.05;;;3.20;;
26858;SDS011;14429;48.346;16.338;2023-02-28T07:06:33;4.53;;;2.70;;
26858;SDS011;14429;48.346;16.338;2023-02-28T07:08:59;7.32;;;3.05;;
26858;SDS011;14429;48.346;16.338;2023-02-28T07:11:25;7.20;;;3.47;;
26858;SDS011;14429;48.346;16.338;2023-02-28T07:13:52;8.15;;;3.58;;
26858;SDS011;14429;48.346;16.338;2023-02-28T07:16:18;5.15;;;2.78;;
26858;SDS011;14429;48.346;16.338;2023-02-28T07:18:45;6.95;;;3.67;;
26858;SDS011;14429;48.346;16.338;2023-02-28T07:21:10;6.75;;;2.67;;
26858;SDS011;14429;48.346;16.338;2023-02-28T07:23:36;6.78;;;2.92;;
26858;SDS011;14429;48.346;16.338;2023-02-28T07:26:02;6.35;;;3.55;;
26858;SDS011;14429;48.346;16.338;2023-02-28T07:28:27;6.57;;;2.88;;
26858;SDS011;14429;48.346;16.338;2023-02-28T07:30:53;7.30;;;3.30;;
26858;SDS011;14429;48.346;16.338;2023-02-28T07:33:19;6.20;;;3.47;;
26858;SDS011;14429;48.346;16.338;2023-02-28T07:35:45;6.05;;;3.13;;
26858;SDS011;14429;48.346;16.338;2023-02-28T07:38:11;5.75;;;3.10;;
26858;SDS011;14429;48.346;16.338;2023-02-28T07:40:36;5.93;;;2.80;;
26858;SDS011;14429;48.346;16.338;2023-02-28T07:43:02;5.35;;;2.83;;
26858;SDS011;14429;48.346;16.338;2023-02-28T07:45:28;5.95;;;3.08;;
26858;SDS011;14429;48.346;16.338;2023-02-28T07:47:55;5.55;;;3.17;;
26858;SDS011;14429;48.346;16.338;2023-02-28T07:50:21;12.68;;;5.78;;
26858;SDS011;14429;48.346;16.338;2023-02-28T07:52:48;13.38;;;3.83;;
26858;SDS011;14429;48.346;16.338;2023-02-28T07:55:13;5.40;;;3.28;;
26858;SDS011;14429;48.346;16.338;2023-02-28T07:57:39;5.95;;;2.92;;
26858;SDS011;14429;48.346;16.338;2023-02-28T08:00:06;10.10;;;5.18;;
26858;SDS011;14429;48.346;16.338;2023-02-28T08:02:35;6.75;;;3.08;;
26858;SDS011;14429;48.346;16.338;2023-02-28T08:05:00;6.30;;;3.88;;
26858;SDS011;14429;48.346;16.338;2023-02-28T08:07:26;13.05;;;2.97;;
26858;SDS011;14429;48.346;16.338;2023-02-28T08:09:53;13.52;;;5.22;;
26858;SDS011;14429;48.346;16.338;2023-02-28T08:12:18;8.75;;;5.30;;
26858;SDS011;14429;48.346;16.338;2023-02-28T08:14:44;13.50;;;7.78;;
26858;SDS011;14429;48.346;16.338;2023-02-28T08:17:10;6.38;;;3.45;;
26858;SDS011;14429;48.346;16.338;2023-02-28T08:19:35;12.57;;;5.40;;
26858;SDS011;14429;48.346;16.338;2023-02-28T08:22:01;14.73;;;7.57;;
26858;SDS011;14429;48.346;16.338;2023-02-28T08:24:26;14.27;;;6.82;;
26858;SDS011;14429;48.346;16.338;2023-02-28T08:26:53;38.05;;;13.30;;
26858;SDS011;14429;48.346;16.338;2023-02-28T08:29:19;19.70;;;8.80;;
26858;SDS011;14429;48.346;16.338;2023-02-28T08:31:44;13.60;;;7.47;;
26858;SDS011;14429;48.346;16.338;2023-02-28T08:34:11;15.10;;;7.50;;
26858;SDS011;14429;48.346;16.338;2023-02-28T08:36:38;13.02;;;6.57;;
26858;SDS011;14429;48.346;16.338;2023-02-28T08:39:04;7.28;;;4.82;;
26858;SDS011;14429;48.346;16.338;2023-02-28T08:41:29;13.45;;;4.22;;
26858;SDS011;14429;48.346;16.338;2023-02-28T08:43:59;21.38;;;8.27;;
26858;SDS011;14429;48.346;16.338;2023-02-28T08:46:25;17.02;;;7.30;;
26858;SDS011;14429;48.346;16.338;2023-02-28T08:48:51;15.50;;;5.90;;
26858;SDS011;14429;48.346;16.338;2023-02-28T08:51:17;18.38;;;8.10;;
26858;SDS011;14429;48.346;16.338;2023-02-28T08:53:43;20.30;;;8.60;;
26858;SDS011;14429;48.346;16.338;2023-02-28T08:56:10;15.45;;;7.40;;
26858;SDS011;14429;48.346;16.338;2023-02-28T08:58:37;13.60;;;5.70;;
26858;SDS011;14429;48.346;16.338;2023-02-28T09:01:08;14.27;;;6.85;;
26858;SDS011;14429;48.346;16.338;2023-02-28T09:03:35;10.80;;;6.03;;
26858;SDS011;14429;48.346;16.338;2023-02-28T09:06:00;17.85;;;8.27;;
26858;SDS011;14429;48.346;16.338;2023-02-28T09:08:27;12.60;;;6.80;;
26858;SDS011;14429;48.346;16.338;2023-02-28T09:10:54;11.45;;;5.72;;
26858;SDS011;14429;48.346;16.338;2023-02-28T09:13:20;16.90;;;8.07;;
26858;SDS011;14429;48.346;16.338;2023-02-28T09:15:45;20.58;;;8.98;;
26858;SDS011;14429;48.346;16.338;2023-02-28T09:18:12;18.50;;;8.32;;
26858;SDS011;14429;48.346;16.338;2023-02-28T09:20:38;15.57;;;8.70;;
26858;SDS011;14429;48.346;16.338;2023-02-28T09:23:04;17.00;;;7.68;;
26858;SDS011;14429;48.346;16.338;2023-02-28T09:25:30;13.07;;;5.65;;
26858;SDS011;14429;48.346;16.338;2023-02-28T09:27:55;10.82;;;6.15;;
26858;SDS011;14429;48.346;16.338;2023-02-28T09:30:21;16.73;;;8.63;;
26858;SDS011;14429;48.346;16.338;2023-02-28T09:32:46;10.02;;;5.47;;
26858;SDS011;14429;48.346;16.338;2023-02-28T09:35:13;15.05;;;6.93;;
26858;SDS011;14429;48.346;16.338;2023-02-28T09:37:38;18.30;;;9.10;;
26858;SDS011;14429;48.346;16.338;2023-02-28T10:05:52;16.08;;;8.23;;
26858;SDS011;14429;48.346;16.338;2023-02-28T10:08:25;23.55;;;9.93;;
26858;SDS011;14429;48.346;16.338;2023-02-28T10:10:53;20.30;;;10.07;;
26858;SDS011;14429;48.346;16.338;2023-02-28T10:13:23;14.77;;;6.18;;
26858;SDS011;14429;48.346;16.338;2023-02-28T10:15:52;16.70;;;9.68;;
26858;SDS011;14429;48.346;16.338;2023-02-28T10:18:24;16.17;;;8.52;;
26858;SDS011;14429;48.346;16.338;2023-02-28T10:20:53;19.65;;;8.65;;
26858;SDS011;14429;48.346;16.338;2023-02-28T10:23:21;18.80;;;8.27;;
26858;SDS011;14429;48.346;16.338;2023-02-28T10:25:52;34.47;;;14.52;;
26858;SDS011;14429;48.346;16.338;2023-02-28T10:28:21;14.73;;;6.43;;
26858;SDS011;14429;48.346;16.338;2023-02-28T10:30:51;16.17;;;6.72;;
26858;SDS011;14429;48.346;16.338;2023-02-28T10:33:19;18.48;;;8.82;;
26858;SDS011;14429;48.346;16.338;2023-02-28T10:35:48;17.00;;;8.75;;
26858;SDS011;14429;48.346;16.338;2023-02-28T10:38:17;14.30;;;6.28;;
26858;SDS011;14429;48.346;16.338;2023-02-28T10:40:44;19.67;;;8.88;;
26858;SDS011;14429;48.346;16.338;2023-02-28T10:43:17;15.52;;;5.70;;
26858;SDS011;14429;48.346;16.338;2023-02-28T10:45:52;18.52;;;8.98;;
26858;SDS011;14429;48.346;16.338;2023-02-28T10:48:29;18.08;;;7.82;;
26858;SDS011;14429;48.346;16.338;2023-02-28T10:50:57;12.80;;;5.53;;
26858;SDS011;14429;48.346;16.338;2023-02-28T10:53:28;16.92;;;7.72;;
26858;SDS011;14429;48.346;16.338;2023-02-28T10:55:57;16.83;;;8.60;;
26858;SDS011;14429;48.346;16.338;2023-02-28T10:58:24;12.45;;;6.57;;
26858;SDS011;14429;48.346;16.338;2023-02-28T11:00:51;19.23;;;9.27;;
26858;SDS011;14429;48.346;16.338;2023-02-28T11:03:23;17.40;;;7.55;;
26858;SDS011;14429;48.346;16.338;2023-02-28T11:05:53;13.35;;;7.15;;
26858;SDS011;14429;48.346;16.338;2023-02-28T11:08:19;17.80;;;9.57;;
26858;SDS011;14429;48.346;16.338;2023-02-28T11:10:47;16.92;;;6.47;;
26858;SDS011;14429;48.346;16.338;2023-02-28T11:13:19;14.93;;;7.57;;
26858;SDS011;14429;48.346;16.338;2023-02-28T11:15:49;6.40;;;3.75;;
26858;SDS011;14429;48.346;16.338;2023-02-28T11:18:21;18.45;;;9.20;;
26858;SDS011;14429;48.346;16.338;2023-02-28T11:20:49;13.95;;;5.15;;
26858;SDS011;14429;48.346;16.338;2023-02-28T11:23:17;12.98;;;6.97;;
26858;SDS011;14429;48.346;16.338;2023-02-28T11:25:47;21.50;;;9.15;;
26858;SDS011;14429;48.346;16.338;2023-02-28T11:28:23;17.35;;;8.45;;
26858;SDS011;14429;48.346;16.338;2023-02-28T11:31:05;18.85;;;8.82;;
26858;SDS011;14429;48.346;16.338;2023-02-28T11:33:40;17.05;;;7.53;;
26858;SDS011;14429;48.346;16.338;2023-02-28T11:36:09;19.00;;;9.02;;
26858;SDS011;14429;48.346;16.338;2023-02-28T11:38:37;21.73;;;9.55;;
26858;SDS011;14429;48.346;16.338;2023-02-28T11:41:07;18.42;;;7.90;;
26858;SDS011;14429;48.346;16.338;2023-02-28T11:43:49;16.90;;;8.50;;
26858;SDS011;14429;48.346;16.338;2023-02-28T11:46:27;10.45;;;5.95;;
26858;SDS011;14429;48.346;16.338;2023-02-28T11:49:02;21.10;;;7.47;;
26858;SDS011;14429;48.346;16.338;2023-02-28T11:51:42;20.25;;;8.05;;
26858;SDS011;14429;48.346;16.338;2023-02-28T11:54:23;13.77;;;6.05;;
26858;SDS011;14429;48.346;16.338;2023-02-28T11:57:00;12.25;;;6.28;;
26858;SDS011;14429;48.346;16.338;2023-02-28T11:59:45;14.50;;;6.63;;
26858;SDS011;14429;48.346;16.338;2023-02-28T12:02:23;15.65;;;8.00;;
26858;SDS011;14429;48.346;16.338;2023-02-28T12:04:52;12.88;;;6.72;;
26858;SDS011;14429;48.346;16.338;2023-02-28T12:07:30;14.50;;;7.13;;
26858;SDS011;14429;48.346;16.338;2023-02-28T12:10:04;17.75;;;7.70;;
26858;SDS011;14429;48.346;16.338;2023-02-28T12:12:43;21.23;;;10.00;;
26858;SDS011;14429;48.346;16.338;2023-02-28T12:15:24;13.10;;;6.05;;
26858;SDS011;14429;48.346;16.338;2023-02-28T12:18:00;18.80;;;8.50;;
26858;SDS011;14429;48.346;16.338;2023-02-28T12:20:40;16.73;;;6.80;;
26858;SDS011;14429;48.346;16.338;2023-02-28T12:23:19;15.07;;;6.68;;
26858;SDS011;14429;48.346;16.338;2023-02-28T12:25:54;16.10;;;6.47;;
26858;SDS011;14429;48.346;16.338;2023-02-28T12:28:27;11.00;;;5.15;;
26858;SDS011;14429;48.346;16.338;2023-02-28T12:30:58;13.27;;;6.20;;
26858;SDS011;14429;48.346;16.338;2023-02-28T12:33:31;14.07;;;7.90;;
26858;SDS011;14429;48.346;16.338;2023-02-28T12:36:01;10.23;;;5.43;;
26858;SDS011;14429;48.346;16.338;2023-02-28T12:38:31;18.45;;;7.47;;
26858;SDS011;14429;48.346;16.338;2023-02-28T12:41:02;14.75;;;6.93;;
26858;SDS011;14429;48.346;16.338;2023-02-28T12:43:32;11.98;;;6.55;;
26858;SDS011;14429;48.346;16.338;2023-02-28T12:46:00;10.68;;;4.53;;
26858;SDS011;14429;48.346;16.338;2023-02-28T12:48:36;13.85;;;7.07;;
26858;SDS011;14429;48.346;16.338;2023-02-28T12:51:04;14.73;;;7.65;;
26858;SDS011;14429;48.346;16.338;2023-02-28T12:53:35;18.50;;;7.78;;
26858;SDS011;14429;48.346;16.338;2023-02-28T12:56:09;19.20;;;9.00;;
26858;SDS011;14429;48.346;16.338;2023-02-28T12:58:43;16.13;;;7.63;;
26858;SDS011;14429;48.346;16.338;2023-02-28T13:01:21;12.75;;;7.68;;
26858;SDS011;14429;48.346;16.338;2023-02-28T13:07:13;13.98;;;7.00;;
26858;SDS011;14429;48.346;16.338;2023-02-28T13:09:59;14.90;;;7.35;;
26858;SDS011;14429;48.346;16.338;2023-02-28T13:12:27;13.38;;;6.78;;
26858;SDS011;14429;48.346;16.338;2023-02-28T13:15:01;14.18;;;7.25;;
26858;SDS011;14429;48.346;16.338;2023-02-28T13:17:30;13.57;;;6.65;;
26858;SDS011;14429;48.346;16.338;2023-02-28T13:19:56;13.80;;;7.25;;
26858;SDS011;14429;48.346;16.338;2023-02-28T13:22:36;17.38;;;7.10;;
26858;SDS011;14429;48.346;16.338;2023-02-28T13:25:14;12.45;;;6.28;;
26858;SDS011;14429;48.346;16.338;2023-02-28T13:31:31;15.07;;;7.00;;
26858;SDS011;14429;48.346;16.338;2023-02-28T13:34:12;15.38;;;7.32;;
26858;SDS011;14429;48.346;16.338;2023-02-28T13:36:39;18.13;;;6.80;;
26858;SDS011;14429;48.346;16.338;2023-02-28T13:42:17;20.40;;;7.70;;
26858;SDS011;14429;48.346;16.338;2023-02-28T13:47:53;15.80;;;7.70;;
26858;SDS011;14429;48.346;16.338;2023-02-28T13:50:22;14.18;;;5.95;;
26858;SDS011;14429;48.346;16.338;2023-02-28T13:52:56;13.98;;;6.13;;
26858;SDS011;14429;48.346;16.338;2023-02-28T13:55:36;9.80;;;6.03;;
26858;SDS011;14429;48.346;16.338;2023-02-28T13:58:10;10.50;;;5.97;;
26858;SDS011;14429;48.346;16.338;2023-02-28T14:00:55;10.27;;;6.60;;
26858;SDS011;14429;48.346;16.338;2023-02-28T14:06:14;15.43;;;6.93;;
26858;SDS011;14429;48.346;16.338;2023-02-28T14:08:49;5.80;;;3.70;;
26858;SDS011;14429;48.346;16.338;2023-02-28T14:11:26;18.42;;;6.03;;
26858;SDS011;14429;48.346;16.338;2023-02-28T14:13:54;9.45;;;5.05;;
26858;SDS011;14429;48.346;16.338;2023-02-28T14:16:20;7.82;;;4.43;;
26858;SDS011;14429;48.346;16.338;2023-02-28T14:18:50;11.40;;;6.53;;
26858;SDS011;14429;48.346;16.338;2023-02-28T14:21:21;19.50;;;9.40;;
26858;SDS011;14429;48.346;16.338;2023-02-28T14:23:52;9.63;;;4.32;;
26858;SDS011;14429;48.346;16.338;2023-02-28T14:26:46;18.98;;;9.38;;
26858;SDS011;14429;48.346;16.338;2023-02-28T14:29:35;15.35;;;8.52;;
26858;SDS011;14429;48.346;16.338;2023-02-28T14:32:21;8.43;;;4.07;;
26858;SDS011;14429;48.346;16.338;2023-02-28T14:34:54;9.95;;;5.00;;
26858;SDS011;14429;48.346;16.338;2023-02-28T14:37:26;15.25;;;7.47;;
26858;SDS011;14429;48.346;16.338;2023-02-28T14:39:54;16.13;;;8.02;;
26858;SDS011;14429;48.346;16.338;2023-02-28T14:42:29;13.80;;;7.13;;
26858;SDS011;14429;48.346;16.338;2023-02-28T14:44:56;7.38;;;4.82;;
26858;SDS011;14429;48.346;16.338;2023-02-28T14:47:23;8.80;;;4.80;;
26858;SDS011;14429;48.346;16.338;2023-02-28T14:49:54;16.17;;;7.47;;
26858;SDS011;14429;48.346;16.338;2023-02-28T14:52:20;14.25;;;6.30;;
26858;SDS011;14429;48.346;16.338;2023-02-28T14:54:47;16.67;;;7.28;;
26858;SDS011;14429;48.346;16.338;2023-02-28T14:57:22;14.90;;;7.13;;
26858;SDS011;14429;48.346;16.338;2023-02-28T14:59:56;24.73;;;9.52;;
26858;SDS011;14429;48.346;16.338;2023-02-28T15:02:23;18.42;;;8.65;;
26858;SDS011;14429;48.346;16.338;2023-02-28T15:04:55;10.65;;;3.70;;
26858;SDS011;14429;48.346;16.338;2023-02-28T15:07:22;10.02;;;5.45;;
26858;SDS011;14429;48.346;16.338;2023-02-28T15:09:48;14.60;;;7.72;;
26858;SDS011;14429;48.346;16.338;2023-02-28T15:12:13;8.27;;;4.13;;
26858;SDS011;14429;48.346;16.338;2023-02-28T15:14:41;17.90;;;6.90;;
26858;SDS011;14429;48.346;16.338;2023-02-28T15:17:08;7.85;;;3.63;;
26858;SDS011;14429;48.346;16.338;2023-02-28T15:19:50;17.83;;;8.10;;
26858;SDS011;14429;48.346;16.338;2023-02-28T15:22:26;12.95;;;5.88;;
26858;SDS011;14429;48.346;16.338;2023-02-28T15:24:56;14.18;;;5.53;;
26858;SDS011;14429;48.346;16.338;2023-02-28T15:27:22;17.58;;;7.15;;
26858;SDS011;14429;48.346;16.338;2023-02-28T15:29:53;13.45;;;7.20;;